Terminal Aerodrome Forecast
Issued by NWS

Home | Current Version | Previous Version | Text Only | Print | Product List | Glossary On
Versions: 1 2 3 4 5 6 7 8 9 10 11 12 13 14 15 16 17 18 19 20 21 22 23 24 25 26 27 28 29 30 31 32 33 34 35 36 37 38 39 40 41 42 43 44 45 46 47 48
000
FTUS41 KRLX 282324
TAFCKB
TAF
KCKB 282324Z 2900/2924 22007KT P6SM SCT200
     FM290300 15004KT P6SM VCTS SCT150CB
      TEMPO 2903/2905 4SM -SHRA OVC025
     FM290500 VRB03KT P6SM BKN200
     FM291400 22008G16KT P6SM SCT090
     FM292000 22011G20KT P6SM -SHRA VCTS BKN050CB=

USA.gov is the U.S. government's official web portal to all federal, state and local government web resources and services.